createdAt,value
2018-07-13T00:00:01.669Z,80.19
2018-07-13T00:01:01.664Z,80.76
2018-07-13T00:02:01.423Z,80.73
2018-07-13T00:03:01.662Z,80.82
2018-07-13T00:04:01.654Z,80.76
2018-07-13T00:05:01.422Z,81.2
2018-07-13T00:06:01.665Z,81.1
2018-07-13T00:07:01.664Z,81.01
2018-07-13T00:08:01.661Z,81.59
2018-07-13T00:09:01.660Z,81.3
2018-07-13T00:10:01.668Z,81.59
2018-07-13T00:11:01.673Z,81.97
2018-07-13T00:12:01.418Z,82.07
2018-07-13T00:13:01.659Z,81.78
2018-07-13T00:14:01.667Z,82.26
2018-07-13T00:15:01.680Z,82.64
2018-07-13T00:16:01.420Z,83.31
2018-07-13T00:17:01.663Z,82.64
2018-07-13T00:18:01.672Z,83.03
2018-07-13T00:19:01.670Z,82.93
2018-07-13T00:20:01.685Z,83.03
2018-07-13T00:21:01.424Z,83.22
2018-07-13T00:22:01.446Z,82.26
2018-07-13T00:23:01.661Z,82.45
2018-07-13T00:24:01.672Z,82.16
2018-07-13T00:25:01.409Z,82.26
2018-07-13T00:26:01.673Z,81.68
2018-07-13T00:27:01.432Z,82.35
2018-07-13T00:28:01.665Z,82.35
2018-07-13T00:29:01.661Z,82.16
2018-07-13T00:30:01.661Z,82.26
2018-07-13T00:31:01.666Z,82.45
2018-07-13T00:32:01.669Z,82.07
2018-07-13T00:33:01.417Z,82.26
2018-07-13T00:34:01.664Z,82.35
2018-07-13T00:35:01.417Z,82.35
2018-07-13T00:36:01.676Z,82.26
2018-07-13T00:37:01.668Z,82.45
2018-07-13T00:38:01.668Z,82.35
2018-07-13T00:39:01.428Z,82.35
2018-07-13T00:40:01.418Z,82.45
2018-07-13T00:41:01.661Z,82.35
2018-07-13T00:42:01.681Z,82.45
2018-07-13T00:43:01.664Z,82.45
2018-07-13T00:44:03.514Z,82.45
2018-07-13T00:45:01.675Z,82.54
2018-07-13T00:46:01.415Z,82.35
2018-07-13T00:47:01.668Z,82.54
2018-07-13T00:48:01.677Z,82.31
2018-07-13T00:49:01.664Z,82.35
2018-07-13T00:50:01.419Z,82.45
2018-07-13T00:51:01.724Z,81.78
2018-07-13T00:52:01.431Z,81.97
2018-07-13T00:53:01.680Z,81.87
2018-07-13T00:54:01.673Z,81.97
2018-07-13T00:55:01.414Z,82.35
2018-07-13T00:56:01.658Z,82.45
2018-07-13T00:57:01.683Z,82.31
2018-07-13T00:58:01.684Z,82.89
2018-07-13T00:59:02.480Z,82.89
2018-07-13T01:00:01.676Z,82.89
2018-07-13T01:01:01.447Z,82.89
2018-07-13T01:02:01.682Z,82.98
2018-07-13T01:03:01.420Z,83.56
2018-07-13T01:04:01.428Z,83.47
2018-07-13T01:05:01.419Z,83.56
2018-07-13T01:06:01.426Z,83.56
2018-07-13T01:07:01.680Z,84.23
2018-07-13T01:08:01.674Z,83.65
2018-07-13T01:09:01.694Z,84.14
2018-07-13T01:10:01.693Z,84.14
2018-07-13T01:11:01.458Z,84.04
2018-07-13T01:12:01.424Z,84.23
2018-07-13T01:13:01.429Z,84.33
2018-07-13T01:14:01.672Z,83.94
2018-07-13T01:15:01.683Z,84.23
2018-07-13T01:16:01.683Z,84.04
2018-07-13T01:17:01.684Z,83.94
2018-07-13T01:18:01.427Z,84.52
2018-07-13T01:19:01.690Z,84.52
2018-07-13T01:20:01.695Z,84.91
2018-07-13T01:21:01.472Z,85.38
2018-07-13T01:22:01.688Z,86.15
2018-07-13T01:23:01.685Z,86.97
2018-07-13T01:24:01.433Z,87.07
2018-07-13T01:25:01.682Z,87.93
2018-07-13T01:26:01.683Z,87.84
2018-07-13T01:27:01.681Z,88.22
2018-07-13T01:28:01.686Z,88.41
2018-07-13T01:29:01.668Z,88.02
2018-07-13T01:30:01.691Z,87.74
2018-07-13T01:31:01.715Z,87.84
2018-07-13T01:32:01.687Z,88.6
2018-07-13T01:33:01.422Z,89.56
2018-07-13T01:34:01.420Z,89.56
2018-07-13T01:35:01.686Z,89.47
2018-07-13T01:36:01.667Z,90.04
2018-07-13T01:37:01.415Z,89.71
2018-07-13T01:38:01.417Z,89.47
2018-07-13T01:39:01.691Z,89.18
2018-07-13T01:40:01.425Z,88.94
2018-07-13T01:41:01.431Z,89.13
2018-07-13T01:42:01.672Z,89.32
2018-07-13T01:43:01.412Z,89.23
2018-07-13T01:44:01.669Z,89.13
2018-07-13T01:45:01.665Z,89.42
2018-07-13T01:46:01.415Z,89.42
2018-07-13T01:47:01.670Z,89.47
2018-07-13T01:48:01.670Z,89.37
2018-07-13T01:49:01.413Z,89.18
2018-07-13T01:50:01.415Z,88.98
2018-07-13T01:51:01.670Z,89.37
2018-07-13T01:52:01.436Z,89.32
2018-07-13T01:53:01.670Z,89.42
2018-07-13T01:54:01.413Z,89.8
2018-07-13T01:55:01.418Z,90.38
2018-07-13T01:56:01.418Z,90.76
2018-07-13T01:57:01.671Z,90.76
2018-07-13T01:58:01.673Z,91.14
2018-07-13T01:59:01.421Z,92.01
2018-07-13T02:00:01.683Z,92.1
2018-07-13T02:01:01.669Z,92.01
2018-07-13T02:02:01.669Z,92.3
2018-07-13T02:03:01.660Z,92.49
2018-07-13T02:04:01.660Z,92.87
2018-07-13T02:05:01.664Z,92.44
2018-07-13T02:06:01.411Z,92.97
2018-07-13T02:07:01.661Z,92.82
2018-07-13T02:08:01.416Z,93.26
2018-07-13T02:09:01.660Z,93.69
2018-07-13T02:10:01.653Z,93.4
2018-07-13T02:11:01.666Z,93.49
2018-07-13T02:12:01.660Z,92.97
2018-07-13T02:13:01.401Z,92.87
2018-07-13T02:14:01.660Z,92.68
2018-07-13T02:15:01.662Z,91.91
2018-07-13T02:16:01.666Z,91.43
2018-07-13T02:17:01.418Z,91.63
2018-07-13T02:18:01.407Z,92.01
2018-07-13T02:19:01.673Z,91.91
2018-07-13T02:20:01.409Z,92.1
2018-07-13T02:21:01.667Z,91.91
2018-07-13T02:22:01.650Z,92.3
2018-07-13T02:23:01.721Z,92.39
2018-07-13T02:24:01.408Z,92.73
2018-07-13T02:25:01.395Z,92.25
2018-07-13T02:26:01.677Z,92.54
2018-07-13T02:27:01.656Z,92.06
2018-07-13T02:28:01.647Z,92.44
2018-07-13T02:29:01.647Z,93.02
2018-07-13T02:30:01.655Z,92.82
2018-07-13T02:31:01.649Z,92.82
2018-07-13T02:32:01.653Z,92.1
2018-07-13T02:33:01.393Z,92.39
2018-07-13T02:34:01.497Z,92.01
2018-07-13T02:35:01.706Z,92.01
2018-07-13T02:36:01.387Z,91.63
2018-07-13T02:37:01.649Z,91.34
2018-07-13T02:38:01.401Z,91.63
2018-07-13T02:39:01.482Z,91.43
2018-07-13T02:40:01.435Z,91.63
2018-07-13T02:41:01.639Z,91.24
2018-07-13T02:42:01.649Z,91.72
2018-07-13T02:43:01.638Z,91.63
2018-07-13T02:44:01.631Z,91.05
2018-07-13T02:45:01.632Z,91.24
2018-07-13T02:46:01.627Z,91.24
2018-07-13T02:47:01.654Z,91.14
2018-07-13T02:48:01.639Z,91.05
2018-07-13T02:49:01.375Z,90.95
2018-07-13T02:50:01.632Z,91.53
2018-07-13T02:51:01.631Z,91.63
2018-07-13T02:52:01.630Z,92.49
2018-07-13T02:53:01.633Z,92.77
2018-07-13T02:54:01.396Z,92.92
2018-07-13T02:55:01.634Z,92.58
2018-07-13T02:56:01.668Z,93.21
2018-07-13T02:57:01.632Z,93.02
2018-07-13T02:58:01.629Z,92.77
2018-07-13T02:59:01.365Z,92.87
2018-07-13T03:00:01.620Z,92.82
2018-07-13T03:01:01.625Z,92.87
2018-07-13T03:02:01.367Z,92.68
2018-07-13T03:03:01.388Z,92.1
2018-07-13T03:04:01.625Z,92.1
2018-07-13T03:05:01.384Z,91.72
2018-07-13T03:06:01.622Z,92.01
2018-07-13T03:07:01.372Z,92.06
2018-07-13T03:08:01.623Z,92.49
2018-07-13T03:09:01.620Z,92.82
2018-07-13T03:10:01.624Z,92.35
2018-07-13T03:11:01.619Z,92.3
2018-07-13T03:12:01.368Z,92.01
2018-07-13T03:13:01.628Z,92.49
2018-07-13T03:14:01.616Z,91.72
2018-07-13T03:15:01.615Z,91.24
2018-07-13T03:16:01.365Z,91.43
2018-07-13T03:17:01.357Z,91.91
2018-07-13T03:18:01.364Z,91.96
2018-07-13T03:19:01.614Z,92.39
2018-07-13T03:20:01.620Z,93.11
2018-07-13T03:21:01.694Z,92.82
2018-07-13T03:22:01.739Z,92.82
2018-07-13T03:23:01.627Z,93.21
2018-07-13T03:24:01.624Z,93.21
2018-07-13T03:25:01.636Z,92.97
2018-07-13T03:26:01.620Z,93.16
2018-07-13T03:27:01.368Z,93.3
2018-07-13T03:28:01.624Z,93.69
2018-07-13T03:29:01.610Z,93.88
2018-07-13T03:30:01.627Z,93.78
2018-07-13T03:31:01.619Z,94.07
2018-07-13T03:32:01.621Z,94.07
2018-07-13T03:33:01.357Z,94.55
2018-07-13T03:34:01.355Z,94.07
2018-07-13T03:35:01.622Z,93.69
2018-07-13T03:36:01.619Z,93.69
2018-07-13T03:37:01.599Z,93.49
2018-07-13T03:38:02.874Z,93.88
2018-07-13T03:39:01.614Z,93.98
2018-07-13T03:40:01.608Z,94.55
2018-07-13T03:41:01.602Z,93.69
2018-07-13T03:42:01.616Z,93.59
2018-07-13T03:43:01.597Z,94.84
2018-07-13T03:44:01.679Z,93.69
2018-07-13T03:45:01.596Z,93.69
2018-07-13T03:46:01.342Z,94.17
2018-07-13T03:47:01.341Z,93.69
2018-07-13T03:48:01.599Z,94.07
2018-07-13T03:49:01.588Z,94.26
2018-07-13T03:50:01.590Z,94.26
2018-07-13T03:51:01.587Z,94.07
2018-07-13T03:52:01.591Z,93.78
2018-07-13T03:53:01.580Z,93.69
2018-07-13T03:54:01.640Z,93.21
2018-07-13T03:55:01.330Z,93.88
2018-07-13T03:56:01.594Z,93.69
2018-07-13T03:57:01.329Z,93.59
2018-07-13T03:58:01.343Z,93.3
2018-07-13T03:59:01.326Z,93.3
2018-07-13T04:00:01.576Z,93.49
2018-07-13T04:01:01.635Z,93.49
2018-07-13T04:02:01.322Z,93.69
2018-07-13T04:03:01.572Z,93.21
2018-07-13T04:04:01.576Z,93.88
2018-07-13T04:05:01.574Z,94.35
2018-07-13T04:06:01.572Z,94.45
2018-07-13T04:07:01.644Z,95.41
2018-07-13T04:08:01.324Z,95.31
2018-07-13T04:09:01.609Z,93.69
2018-07-13T04:10:01.574Z,92.92
2018-07-13T04:11:01.582Z,92.3
2018-07-13T04:12:01.344Z,91.34
2018-07-13T04:13:01.575Z,91.34
2018-07-13T04:14:01.575Z,90.86
2018-07-13T04:15:01.379Z,90.19
2018-07-13T04:16:01.316Z,90.42
2018-07-13T04:17:01.584Z,88.89
2018-07-13T04:18:01.582Z,88.22
2018-07-13T04:19:01.321Z,87.74
2018-07-13T04:20:01.581Z,88.22
2018-07-13T04:21:01.312Z,88.6
2018-07-13T04:22:01.571Z,88.12
2018-07-13T04:23:01.570Z,88.22
2018-07-13T04:24:01.565Z,88.31
2018-07-13T04:25:01.570Z,87.93
2018-07-13T04:26:01.580Z,86.92
2018-07-13T04:27:01.322Z,86.92
2018-07-13T04:28:01.322Z,86.63
2018-07-13T04:29:01.594Z,85.38
2018-07-13T04:30:01.569Z,84.27
2018-07-13T04:31:01.319Z,84.14
2018-07-13T04:32:01.321Z,84.56
2018-07-13T04:33:01.322Z,85.58
2018-07-13T04:34:01.575Z,85.58
2018-07-13T04:35:01.576Z,85.67
2018-07-13T04:36:01.572Z,85.19
2018-07-13T04:37:01.337Z,84.18
2018-07-13T04:38:01.326Z,84.08
2018-07-13T04:39:01.587Z,82.84
2018-07-13T04:40:01.324Z,83.12
2018-07-13T04:41:01.743Z,80.96
2018-07-13T04:42:01.596Z,80.66
2018-07-13T04:43:01.582Z,79.99
2018-07-13T04:44:01.586Z,79.22
2018-07-13T04:45:01.591Z,78.21
2018-07-13T04:46:01.590Z,77.83
2018-07-13T04:47:01.596Z,77.38
2018-07-13T04:48:01.341Z,76.9
2018-07-13T04:49:01.601Z,76.61
2018-07-13T04:50:01.601Z,76.23
2018-07-13T04:51:01.353Z,75.65
2018-07-13T04:52:01.600Z,75.21
2018-07-13T04:53:01.345Z,74.82
2018-07-13T04:54:01.600Z,73.96
2018-07-13T04:55:01.605Z,73.57
2018-07-13T04:56:01.611Z,73.13
2018-07-13T04:57:01.616Z,72.36
2018-07-13T04:58:01.364Z,71.97
2018-07-13T04:59:01.619Z,71.88
2018-07-13T05:00:01.372Z,71.59
2018-07-13T05:01:01.383Z,71.78
2018-07-13T05:02:01.391Z,71.4
2018-07-13T05:03:01.645Z,71.04
2018-07-13T05:04:01.646Z,69.89
2018-07-13T05:05:01.646Z,69.79
2018-07-13T05:06:01.644Z,68.96
2018-07-13T05:07:01.660Z,68.19
2018-07-13T05:08:01.661Z,68.48
2018-07-13T05:09:01.663Z,67.65
2018-07-13T05:10:01.656Z,67.46
2018-07-13T05:11:01.670Z,66.88
2018-07-13T05:12:01.679Z,66.39
2018-07-13T05:13:01.673Z,66.04
2018-07-13T05:14:01.423Z,65.95
2018-07-13T05:15:02.228Z,65.85
2018-07-13T05:16:01.435Z,64.98
2018-07-13T05:17:01.453Z,64.89
2018-07-13T05:18:01.714Z,64.5
2018-07-13T05:19:01.718Z,64.5
2018-07-13T05:20:01.717Z,64.4
2018-07-13T05:21:01.729Z,64.4
2018-07-13T05:22:01.716Z,64.69
2018-07-13T05:23:01.725Z,64.31
2018-07-13T05:24:01.718Z,63.76
2018-07-13T05:25:01.739Z,63.18
2018-07-13T05:26:01.738Z,62.99
2018-07-13T05:27:01.505Z,62.34
2018-07-13T05:28:01.743Z,61.38
2018-07-13T05:29:01.745Z,61.86
2018-07-13T05:30:01.761Z,61.96
2018-07-13T05:31:01.760Z,60.61
2018-07-13T05:32:01.764Z,60.44
2018-07-13T05:33:01.509Z,60.54
2018-07-13T05:34:01.778Z,60.38
2018-07-13T05:35:01.779Z,59.12
2018-07-13T05:36:01.785Z,58.37
2018-07-13T05:37:01.789Z,57.99
2018-07-13T05:38:01.796Z,56.83
2018-07-13T05:39:01.802Z,56.18
2018-07-13T05:40:01.798Z,56.67
2018-07-13T05:41:01.823Z,56.37
2018-07-13T05:42:01.827Z,56.09
2018-07-13T05:43:01.822Z,55.73
2018-07-13T05:44:01.826Z,55.34
2018-07-13T05:45:02.086Z,54.08
2018-07-13T05:46:01.841Z,54.3
2018-07-13T05:47:01.860Z,53.43
2018-07-13T05:48:01.851Z,53.55
2018-07-13T05:49:01.864Z,52.58
2018-07-13T05:50:01.624Z,51.25
2018-07-13T05:51:01.875Z,52.12
2018-07-13T05:52:01.876Z,52.22
2018-07-13T05:53:01.624Z,51.09
2018-07-13T05:54:01.635Z,49.92
2018-07-13T05:55:01.647Z,49.66
2018-07-13T05:56:01.662Z,49.37
2018-07-13T05:57:01.659Z,48.22
2018-07-13T05:58:01.916Z,48.8
2018-07-13T05:59:01.918Z,49.46
2018-07-13T06:00:01.946Z,50.41
2018-07-13T06:01:01.936Z,50.99
2018-07-13T06:02:01.947Z,51.84
2018-07-13T06:03:01.695Z,51.74
2018-07-13T06:04:01.743Z,51.35
2018-07-13T06:05:01.708Z,50.38
2018-07-13T06:06:01.963Z,50.5
2018-07-13T06:07:01.976Z,50.02
2018-07-13T06:08:01.978Z,49.92
2018-07-13T06:09:01.987Z,49.75
2018-07-13T06:10:01.753Z,49.37
2018-07-13T06:11:01.763Z,48.13
2018-07-13T06:12:02.009Z,46.79
2018-07-13T06:13:02.025Z,45.84
2018-07-13T06:14:01.778Z,46.62
2018-07-13T06:23:46.109Z,43.95
2018-07-13T06:24:46.105Z,44.04
2018-07-13T06:25:46.107Z,44.53
2018-07-13T06:26:46.115Z,44.79
2018-07-13T06:27:46.117Z,44.51
2018-07-13T06:28:46.127Z,45.48
2018-07-13T06:29:46.130Z,44.99
2018-07-13T06:30:45.877Z,45.09
2018-07-13T06:31:45.890Z,45.01
2018-07-13T06:32:45.893Z,45.11
2018-07-13T06:33:46.155Z,45.89
2018-07-13T06:34:45.909Z,44.99
2018-07-13T06:35:46.171Z,45.38
2018-07-13T06:36:46.192Z,44.89
2018-07-13T06:37:46.191Z,44.33
2018-07-13T06:38:45.937Z,42.7
2018-07-13T06:39:46.197Z,42.53
2018-07-13T06:40:46.217Z,42.91
2018-07-13T06:41:45.957Z,43.01
2018-07-13T06:42:45.964Z,42.63
2018-07-13T06:43:45.979Z,42.99
2018-07-13T06:44:46.360Z,42.9
2018-07-13T06:45:45.992Z,43.09
2018-07-13T06:46:46.248Z,44.06
2018-07-13T06:47:46.258Z,43.16
2018-07-13T06:48:46.001Z,42.41
2018-07-13T06:49:46.009Z,41.75
2018-07-13T06:50:46.069Z,42.43
2018-07-13T06:51:46.028Z,42.91
2018-07-13T06:52:46.034Z,42.14
2018-07-13T06:53:46.305Z,42.06
2018-07-13T06:54:46.301Z,41.09
2018-07-13T06:55:46.435Z,40.23
2018-07-13T06:56:46.444Z,40.35
2018-07-13T06:57:46.070Z,41.32
2018-07-13T06:58:46.346Z,40.06
2018-07-13T06:59:46.339Z,40.55
2018-07-13T07:00:46.396Z,41.52
2018-07-13T07:01:46.355Z,41.6
2018-07-13T07:02:46.109Z,42.06
2018-07-13T07:03:46.384Z,42.04
2018-07-13T07:04:46.380Z,41.55
2018-07-13T07:05:46.406Z,40.6
2018-07-13T07:06:46.405Z,41.09
2018-07-13T07:07:46.508Z,41.28
2018-07-13T07:08:46.163Z,40.33
2018-07-13T07:09:46.172Z,40.72
2018-07-13T07:10:46.521Z,40.13
2018-07-13T07:11:46.195Z,41.42
2018-07-13T07:12:46.189Z,40.25
2018-07-13T07:13:46.208Z,40.45
2018-07-13T07:14:46.463Z,40.16
2018-07-13T07:15:46.490Z,40.16
2018-07-13T07:16:46.475Z,41.11
2018-07-13T07:17:46.527Z,42.45
2018-07-13T07:18:46.497Z,42.55
2018-07-13T07:19:46.242Z,41.85
2018-07-13T07:20:46.511Z,42.04
2018-07-13T07:21:46.257Z,42.53
2018-07-13T07:22:46.265Z,41.36
2018-07-13T07:23:46.538Z,41.09
2018-07-13T07:24:46.533Z,40.03
2018-07-13T07:25:46.582Z,39.86
2018-07-13T07:26:46.289Z,39.28
2018-07-13T07:27:46.300Z,38.32
2018-07-13T07:28:46.563Z,39.28
2018-07-13T07:29:46.569Z,39.96
2018-07-13T07:30:46.853Z,40.52
2018-07-13T07:31:46.348Z,39.65
2018-07-13T07:32:46.602Z,39.08
2018-07-13T07:33:46.362Z,38.98
2018-07-13T07:34:46.603Z,38.71
2018-07-13T07:35:46.635Z,37.54
2018-07-13T07:36:46.619Z,37.65
2018-07-13T07:37:46.684Z,36.7
2018-07-13T07:38:46.467Z,37.77
2018-07-13T07:39:46.642Z,36.41
2018-07-13T07:40:46.675Z,36.21
2018-07-13T07:41:46.662Z,35.25
2018-07-13T07:42:46.665Z,35.17
2018-07-13T07:43:46.705Z,34.48
2018-07-13T07:44:46.682Z,33.92
2018-07-13T07:45:46.697Z,33.74
2018-07-13T07:46:46.718Z,34.52
2018-07-13T07:47:46.709Z,33.64
2018-07-13T07:48:46.742Z,33.25
2018-07-13T07:49:46.727Z,33.26
2018-07-13T07:50:46.798Z,33.48
2018-07-13T07:51:46.500Z,33.58
2018-07-13T07:52:46.761Z,32.01
2018-07-13T07:53:46.766Z,32.2
2018-07-13T07:54:46.773Z,32.4
2018-07-13T07:55:46.556Z,32.12
2018-07-13T07:56:46.533Z,32.1
2018-07-13T07:57:46.541Z,32.4
2018-07-13T07:58:46.809Z,32.5
2018-07-13T07:59:46.567Z,32.2
2018-07-13T08:00:46.589Z,31.03
2018-07-13T08:01:46.630Z,30.36
2018-07-13T08:02:46.858Z,30.36
2018-07-13T08:03:46.871Z,31.45
2018-07-13T08:04:46.890Z,31.04
2018-07-13T08:05:46.983Z,31.16
2018-07-13T08:06:46.819Z,31.26
2018-07-13T08:07:46.906Z,31.35
2018-07-13T08:08:46.918Z,30.49
2018-07-13T08:09:46.911Z,29.8
2018-07-13T08:10:46.939Z,30.58
2018-07-13T08:11:46.664Z,30.3
2018-07-13T08:12:46.729Z,29.14
2018-07-13T08:13:47.265Z,29.93
2018-07-13T08:14:46.696Z,29.33
2018-07-13T08:15:47.012Z,29.52
2018-07-13T08:16:46.712Z,29.72
2018-07-13T08:17:46.979Z,29.05
2018-07-13T08:18:46.994Z,28.27
2018-07-13T08:19:47.037Z,27.31
2018-07-13T08:20:46.749Z,26.92
2018-07-13T08:21:47.016Z,27.32
2018-07-13T08:22:47.026Z,27.14
2018-07-13T08:23:47.045Z,28.22
2018-07-13T08:24:46.785Z,27.42
2018-07-13T08:25:47.056Z,28.17
2018-07-13T08:26:46.897Z,27.98
2018-07-13T08:27:46.809Z,28.77
2018-07-13T08:28:47.086Z,29.06
2018-07-13T08:29:47.085Z,27.88
2018-07-13T08:30:47.103Z,27.88
2018-07-13T08:31:47.108Z,28.75
2018-07-13T08:32:46.862Z,29.8
2018-07-13T08:33:47.136Z,31.45
2018-07-13T08:34:47.139Z,32.22
2018-07-13T08:35:47.148Z,31.93
2018-07-13T08:36:47.152Z,31.54
2018-07-13T08:37:47.270Z,30.55
2018-07-13T08:38:47.173Z,30.46
2018-07-13T08:39:47.192Z,29.9
2018-07-13T08:40:47.006Z,29.31
2018-07-13T08:41:46.949Z,29.22
2018-07-13T08:42:47.211Z,29.03
2018-07-13T08:43:46.980Z,28.45
2018-07-13T08:44:46.982Z,29.14
2018-07-13T08:45:47.429Z,29.6
2018-07-13T08:46:47.262Z,29.98
2018-07-13T08:47:47.011Z,30.65
2018-07-13T08:48:47.263Z,32.51
2018-07-13T08:49:47.023Z,32.89
2018-07-13T08:50:47.349Z,30.55
2018-07-13T08:51:47.592Z,29.98
2018-07-13T08:52:47.049Z,30.46
2018-07-13T08:53:47.113Z,31.23
2018-07-13T08:54:47.067Z,31.6
2018-07-13T08:55:47.426Z,33.05
2018-07-13T08:56:47.097Z,32.26
2018-07-13T08:57:47.347Z,33.84
2018-07-13T08:58:47.353Z,33.34
2018-07-13T08:59:47.438Z,32.39
2018-07-13T09:00:47.455Z,32.87
2018-07-13T09:01:47.659Z,34.01
2018-07-13T09:02:47.405Z,35.06
2018-07-13T09:03:47.155Z,36.49
2018-07-13T09:04:47.539Z,37.52
2018-07-13T09:05:47.517Z,39.04
2018-07-13T09:06:47.178Z,40.09
2018-07-13T09:07:47.176Z,41.22
2018-07-13T09:08:47.201Z,41.51
2018-07-13T09:09:47.449Z,42.08
2018-07-13T09:10:47.591Z,42.54
2018-07-13T09:11:47.637Z,44.78
2018-07-13T09:12:47.518Z,45.04
2018-07-13T09:13:47.499Z,44.38
2018-07-13T09:14:47.491Z,44.29
2018-07-13T09:15:47.501Z,43.12
2018-07-13T09:16:47.506Z,44.12
2018-07-13T09:17:47.514Z,40.83
2018-07-13T09:18:47.521Z,40.44
2018-07-13T09:19:47.282Z,40.15
2018-07-13T09:20:47.534Z,39.47
2018-07-13T09:21:47.538Z,39.67
2018-07-13T09:22:47.555Z,40.62
2018-07-13T09:23:47.561Z,41.39
2018-07-13T09:24:47.306Z,40.23
2018-07-13T09:25:47.562Z,40.91
2018-07-13T09:26:47.592Z,40.62
2018-07-13T09:27:47.362Z,41.01
2018-07-13T09:28:47.335Z,42.36
2018-07-13T09:29:47.596Z,41.01
2018-07-13T09:30:47.705Z,40.06
2018-07-13T09:31:47.624Z,38.98
2018-07-13T09:32:47.610Z,39.96
2018-07-13T09:33:47.619Z,39.65
2018-07-13T09:34:47.368Z,39.84
2018-07-13T09:35:47.696Z,42.08
2018-07-13T09:36:47.378Z,40.25
2018-07-13T09:37:47.644Z,40.13
2018-07-13T09:38:47.644Z,43.82
2018-07-13T09:39:47.659Z,41.78
2018-07-13T09:40:47.657Z,43.9
2018-07-13T09:41:47.665Z,42.64
2018-07-13T09:42:47.673Z,41.38
2018-07-13T09:43:47.422Z,41.77
2018-07-13T09:44:47.682Z,41.38
2018-07-13T09:45:47.690Z,41.67
2018-07-13T09:46:47.953Z,41.57
2018-07-13T09:47:47.692Z,42.83
2018-07-13T09:48:47.692Z,42.05
2018-07-13T09:49:47.702Z,41.67
2018-07-13T09:50:47.800Z,41.96
2018-07-13T09:51:47.739Z,42.05
2018-07-13T09:52:47.726Z,41.28
2018-07-13T09:53:47.985Z,41.47
2018-07-13T09:54:47.736Z,41.77
2018-07-13T09:55:47.834Z,42.03
2018-07-13T09:56:47.493Z,42.23
2018-07-13T09:57:47.751Z,42.61
2018-07-13T09:58:47.502Z,42.81
2018-07-13T09:59:47.505Z,42.71
2018-07-13T10:00:48.264Z,43.2
2018-07-13T10:01:47.771Z,43.95
2018-07-13T10:02:47.770Z,43.86
2018-07-13T10:03:47.529Z,43.76
2018-07-13T10:04:47.795Z,44.73
2018-07-13T10:05:47.822Z,44.34
2018-07-13T10:06:47.790Z,43.37
2018-07-13T10:07:47.806Z,45.02
2018-07-13T10:08:47.804Z,43.18
2018-07-13T10:09:47.808Z,44.44
2018-07-13T10:10:47.859Z,44.64
2018-07-13T10:11:47.818Z,43.27
2018-07-13T10:12:47.821Z,43.78
2018-07-13T10:13:47.832Z,43.59
2018-07-13T10:14:47.594Z,43.01
2018-07-13T10:15:47.964Z,42.08
2018-07-13T10:16:47.846Z,40.62
2018-07-13T10:17:47.861Z,40.25
2018-07-13T10:18:47.870Z,40.83
2018-07-13T10:19:47.867Z,40.06
2018-07-13T10:20:47.731Z,39.59
2018-07-13T10:21:47.864Z,39
2018-07-13T10:22:47.902Z,38.34
2018-07-13T10:54:14.384Z,41.74
2018-07-13T10:55:14.150Z,41.74
2018-07-13T10:56:14.119Z,41.45
2018-07-13T10:57:14.350Z,41.38
2018-07-13T10:58:14.118Z,40.89
2018-07-13T10:59:14.356Z,40.72
2018-07-13T11:00:14.388Z,40.13
2018-07-13T11:01:14.383Z,41.39
2018-07-13T11:02:14.379Z,40.15
2018-07-13T11:03:14.122Z,39.2
2018-07-13T11:04:14.136Z,38.81
2018-07-13T11:05:14.384Z,38.71
2018-07-13T11:06:14.389Z,37.46
2018-07-13T11:07:14.381Z,37.95
2018-07-13T11:08:14.393Z,38.54
2018-07-13T11:09:14.400Z,38.71
2018-07-13T11:10:14.407Z,40.85
2018-07-13T11:11:14.408Z,40.06
2018-07-13T11:12:14.424Z,39.08
2018-07-13T11:13:14.178Z,40.34
2018-07-13T11:14:14.191Z,42.19
2018-07-13T11:15:14.451Z,41.03
2018-07-13T11:16:14.435Z,39.78
2018-07-13T11:17:14.451Z,39.29
2018-07-13T11:18:14.454Z,39.69
2018-07-13T11:19:14.460Z,39.49
2018-07-13T11:20:14.466Z,41.05
2018-07-13T11:21:14.201Z,41.53
2018-07-13T11:22:14.468Z,39.69
2018-07-13T11:23:14.469Z,39.08
2018-07-13T11:24:14.558Z,39.86
2018-07-13T11:25:14.480Z,40.93
2018-07-13T11:26:14.499Z,40.15
2018-07-13T11:27:14.495Z,39.96
2018-07-13T11:28:14.502Z,41.03
2018-07-13T11:29:14.519Z,40.34
2018-07-13T11:30:14.525Z,39.94
2018-07-13T11:31:14.263Z,41.3
2018-07-13T11:32:14.572Z,40.13
2018-07-13T11:33:14.589Z,40.13
2018-07-13T11:34:14.278Z,40.13
2018-07-13T11:35:14.537Z,40.52
2018-07-13T11:36:14.537Z,40.52
2018-07-13T11:37:15.155Z,40.13
2018-07-13T11:38:14.553Z,40.62
2018-07-13T11:39:14.305Z,40.54
2018-07-13T11:40:14.569Z,42.58
2018-07-13T11:41:14.573Z,40.64
2018-07-13T11:42:14.323Z,39.86
2018-07-13T11:43:14.580Z,40.34
2018-07-13T11:44:15.543Z,44.04
2018-07-13T11:45:14.591Z,39.86
2018-07-13T11:46:14.596Z,40.34
2018-07-13T11:47:14.598Z,40.64
2018-07-13T11:48:14.620Z,39.47
2018-07-13T11:49:14.622Z,39.49
2018-07-13T11:50:14.619Z,40.08
2018-07-13T11:51:14.622Z,40.95
2018-07-13T11:52:14.811Z,41.36
2018-07-13T11:53:14.376Z,39.7
2018-07-13T11:54:14.641Z,39.24
2018-07-13T11:55:14.646Z,39.04
2018-07-13T11:56:14.658Z,38.65
2018-07-13T11:57:14.412Z,37.31
2018-07-13T11:58:14.672Z,36.63
2018-07-13T11:59:14.420Z,36.72
2018-07-13T12:00:14.674Z,36.92
2018-07-13T12:01:14.677Z,39.94
2018-07-13T12:02:14.697Z,40.06
2018-07-13T12:03:14.690Z,37.23
2018-07-13T12:04:14.444Z,36.16
2018-07-13T12:05:14.697Z,36.06
2018-07-13T12:06:14.714Z,39.37
2018-07-13T12:07:14.738Z,36.84
2018-07-13T12:08:14.718Z,36.84
2018-07-13T12:09:14.728Z,37.6
2018-07-13T12:10:14.738Z,38.38
2018-07-13T12:11:14.735Z,39.94
2018-07-13T12:12:14.496Z,38.36
2018-07-13T12:13:14.752Z,37.48
2018-07-13T12:14:14.498Z,37.58
2018-07-13T12:15:14.769Z,38.56
2018-07-13T12:16:14.784Z,37.1
2018-07-13T12:17:14.769Z,36.32
2018-07-13T12:18:14.533Z,36.9
2018-07-13T12:19:14.785Z,36.43
2018-07-13T12:20:14.830Z,36.63
2018-07-13T12:21:14.541Z,36.33
2018-07-13T12:22:14.800Z,35.75
2018-07-13T12:23:14.918Z,35.08
2018-07-13T12:24:14.559Z,34.69
2018-07-13T12:25:14.565Z,34.99
2018-07-13T12:26:14.574Z,35.86
2018-07-13T12:27:14.830Z,35.67
2018-07-13T12:28:14.838Z,37.62
2018-07-13T12:29:14.838Z,37.33
2018-07-13T12:30:14.849Z,36.18
2018-07-13T12:31:14.857Z,36.55
2018-07-13T12:32:14.871Z,36.45
2018-07-13T12:33:14.867Z,36.24
2018-07-13T12:34:14.871Z,36.33
2018-07-13T12:35:14.896Z,37
2018-07-13T12:36:14.888Z,36.9
2018-07-13T12:37:14.950Z,36.71
2018-07-13T12:38:14.650Z,36.8
2018-07-13T12:39:14.901Z,37.29
2018-07-13T12:40:14.657Z,37.27
2018-07-13T12:41:14.919Z,37.45
2018-07-13T12:42:14.677Z,37.45
2018-07-13T12:43:14.920Z,37.64
2018-07-13T12:44:14.934Z,37.54
2018-07-13T12:45:14.940Z,37.45
2018-07-13T12:46:14.696Z,37.64
2018-07-13T12:47:14.947Z,37.64
2018-07-13T12:48:14.954Z,37.64
2018-07-13T12:49:15.124Z,37.16
2018-07-13T12:50:14.967Z,37.26
2018-07-13T12:51:14.723Z,36.87
2018-07-13T12:52:14.992Z,36.87
2018-07-13T12:53:14.985Z,37.16
2018-07-13T12:54:15.339Z,37.64
2018-07-13T12:55:14.997Z,37.45
2018-07-13T12:56:14.999Z,36.88
2018-07-13T12:57:14.752Z,36.98
2018-07-13T12:58:15.013Z,36.59
2018-07-13T12:59:14.760Z,37.46
2018-07-13T13:00:14.766Z,37.16
2018-07-13T13:01:14.765Z,37.54
2018-07-13T13:02:15.032Z,38.64
2018-07-13T13:03:15.038Z,36.3
2018-07-13T13:04:15.047Z,36.1
2018-07-13T13:05:15.062Z,36.69
2018-07-13T13:06:15.046Z,36.69
2018-07-13T13:07:14.833Z,36.67
2018-07-13T13:08:15.056Z,38.73
2018-07-13T13:09:15.054Z,38.73
2018-07-13T13:10:15.061Z,38.64
2018-07-13T13:11:15.075Z,37.46
2018-07-13T13:12:15.077Z,39.22
2018-07-13T13:13:14.834Z,37.37
2018-07-13T13:14:14.835Z,35.93
2018-07-13T13:15:15.243Z,37.48
2018-07-13T13:16:15.106Z,36.8
2018-07-13T13:17:15.121Z,36.12
2018-07-13T13:18:15.127Z,36.22
2018-07-13T13:19:15.139Z,37.39
2018-07-13T13:20:14.880Z,38.64
2018-07-13T13:21:14.879Z,39.31
2018-07-13T13:22:14.885Z,38.07
2018-07-13T13:23:14.884Z,37.29
2018-07-13T13:24:15.150Z,36.32
2018-07-13T13:25:15.168Z,37.58
2018-07-13T13:26:15.161Z,38.44
2018-07-13T13:27:14.915Z,37.46
2018-07-13T13:28:14.920Z,37.18
2018-07-13T13:29:14.975Z,37.76
2018-07-13T13:30:14.934Z,36.4
2018-07-13T13:31:15.190Z,36.67
2018-07-13T13:32:15.197Z,36.47
2018-07-13T13:33:14.947Z,37.06